sensor_id;sensor_type;location;lat;lon;timestamp;P1;durP1;ratioP1;P2;durP2;ratioP2
55706;SDS011;41608;45.384;20.394;2022-10-22T00:00:12;9.13;;;5.88;;
55706;SDS011;41608;45.384;20.394;2022-10-22T00:02:38;12.60;;;6.03;;
55706;SDS011;41608;45.384;20.394;2022-10-22T00:05:05;9.45;;;6.07;;
55706;SDS011;41608;45.384;20.394;2022-10-22T00:07:31;10.70;;;6.55;;
55706;SDS011;41608;45.384;20.394;2022-10-22T00:09:57;11.73;;;5.78;;
55706;SDS011;41608;45.384;20.394;2022-10-22T00:12:23;13.27;;;5.85;;
55706;SDS011;41608;45.384;20.394;2022-10-22T00:14:49;18.17;;;6.18;;
55706;SDS011;41608;45.384;20.394;2022-10-22T00:17:16;14.02;;;5.93;;
55706;SDS011;41608;45.384;20.394;2022-10-22T00:19:42;9.70;;;6.10;;
55706;SDS011;41608;45.384;20.394;2022-10-22T00:22:08;19.48;;;7.10;;
55706;SDS011;41608;45.384;20.394;2022-10-22T00:24:35;10.07;;;5.60;;
55706;SDS011;41608;45.384;20.394;2022-10-22T00:27:01;11.30;;;6.10;;
55706;SDS011;41608;45.384;20.394;2022-10-22T00:29:28;11.52;;;7.45;;
55706;SDS011;41608;45.384;20.394;2022-10-22T00:31:54;9.43;;;6.03;;
55706;SDS011;41608;45.384;20.394;2022-10-22T00:34:20;10.68;;;5.70;;
55706;SDS011;41608;45.384;20.394;2022-10-22T00:36:47;10.45;;;6.38;;
55706;SDS011;41608;45.384;20.394;2022-10-22T00:39:14;10.93;;;5.18;;
55706;SDS011;41608;45.384;20.394;2022-10-22T00:41:44;12.88;;;5.70;;
55706;SDS011;41608;45.384;20.394;2022-10-22T00:46:55;8.32;;;5.32;;
55706;SDS011;41608;45.384;20.394;2022-10-22T00:49:21;11.13;;;6.00;;
55706;SDS011;41608;45.384;20.394;2022-10-22T00:51:47;15.32;;;6.03;;
55706;SDS011;41608;45.384;20.394;2022-10-22T00:54:13;10.90;;;5.15;;
55706;SDS011;41608;45.384;20.394;2022-10-22T00:56:39;18.30;;;6.97;;
55706;SDS011;41608;45.384;20.394;2022-10-22T00:59:05;10.45;;;6.25;;
55706;SDS011;41608;45.384;20.394;2022-10-22T01:01:32;10.60;;;6.38;;
55706;SDS011;41608;45.384;20.394;2022-10-22T01:03:58;11.10;;;6.28;;
55706;SDS011;41608;45.384;20.394;2022-10-22T01:11:29;12.38;;;5.80;;
55706;SDS011;41608;45.384;20.394;2022-10-22T01:21:55;9.25;;;5.00;;
55706;SDS011;41608;45.384;20.394;2022-10-22T01:29:38;14.05;;;7.25;;
55706;SDS011;41608;45.384;20.394;2022-10-22T01:32:12;11.80;;;6.13;;
55706;SDS011;41608;45.384;20.394;2022-10-22T01:34:39;16.35;;;6.13;;
55706;SDS011;41608;45.384;20.394;2022-10-22T01:37:07;11.40;;;5.70;;
55706;SDS011;41608;45.384;20.394;2022-10-22T01:39:34;12.80;;;6.53;;
55706;SDS011;41608;45.384;20.394;2022-10-22T01:42:01;9.35;;;5.60;;
55706;SDS011;41608;45.384;20.394;2022-10-22T01:44:28;12.70;;;6.70;;
55706;SDS011;41608;45.384;20.394;2022-10-22T01:49:40;14.75;;;6.88;;
55706;SDS011;41608;45.384;20.394;2022-10-22T01:55:13;12.02;;;7.00;;
55706;SDS011;41608;45.384;20.394;2022-10-22T01:57:51;14.60;;;6.63;;
55706;SDS011;41608;45.384;20.394;2022-10-22T02:00:18;14.73;;;6.30;;
55706;SDS011;41608;45.384;20.394;2022-10-22T02:05:37;12.18;;;6.22;;
55706;SDS011;41608;45.384;20.394;2022-10-22T02:08:09;14.38;;;7.05;;
55706;SDS011;41608;45.384;20.394;2022-10-22T02:10:37;12.13;;;6.38;;
55706;SDS011;41608;45.384;20.394;2022-10-22T02:13:04;8.20;;;6.40;;
55706;SDS011;41608;45.384;20.394;2022-10-22T02:15:32;11.23;;;6.57;;
55706;SDS011;41608;45.384;20.394;2022-10-22T02:18:00;10.35;;;5.80;;
55706;SDS011;41608;45.384;20.394;2022-10-22T02:20:27;12.35;;;6.03;;
55706;SDS011;41608;45.384;20.394;2022-10-22T02:22:54;9.05;;;6.57;;
55706;SDS011;41608;45.384;20.394;2022-10-22T02:25:21;10.80;;;7.13;;
55706;SDS011;41608;45.384;20.394;2022-10-22T02:27:54;11.18;;;7.70;;
55706;SDS011;41608;45.384;20.394;2022-10-22T02:30:22;11.30;;;7.20;;
55706;SDS011;41608;45.384;20.394;2022-10-22T02:35:32;12.52;;;7.18;;
55706;SDS011;41608;45.384;20.394;2022-10-22T02:37:59;14.35;;;7.65;;
55706;SDS011;41608;45.384;20.394;2022-10-22T02:40:26;9.93;;;6.78;;
55706;SDS011;41608;45.384;20.394;2022-10-22T02:42:53;11.18;;;7.18;;
55706;SDS011;41608;45.384;20.394;2022-10-22T02:45:19;14.57;;;7.20;;
55706;SDS011;41608;45.384;20.394;2022-10-22T02:47:46;12.55;;;6.75;;
55706;SDS011;41608;45.384;20.394;2022-10-22T02:50:12;13.25;;;7.10;;
55706;SDS011;41608;45.384;20.394;2022-10-22T02:52:38;12.23;;;7.55;;
55706;SDS011;41608;45.384;20.394;2022-10-22T02:55:04;12.20;;;6.97;;
55706;SDS011;41608;45.384;20.394;2022-10-22T02:57:30;10.70;;;7.03;;
55706;SDS011;41608;45.384;20.394;2022-10-22T02:59:57;11.40;;;7.40;;
55706;SDS011;41608;45.384;20.394;2022-10-22T03:02:23;11.30;;;7.00;;
55706;SDS011;41608;45.384;20.394;2022-10-22T03:04:49;12.63;;;6.90;;
55706;SDS011;41608;45.384;20.394;2022-10-22T03:07:15;10.15;;;6.38;;
55706;SDS011;41608;45.384;20.394;2022-10-22T03:09:41;31.73;;;7.63;;
55706;SDS011;41608;45.384;20.394;2022-10-22T03:12:07;11.43;;;6.90;;
55706;SDS011;41608;45.384;20.394;2022-10-22T03:14:34;13.85;;;7.15;;
55706;SDS011;41608;45.384;20.394;2022-10-22T03:17:00;11.50;;;6.70;;
55706;SDS011;41608;45.384;20.394;2022-10-22T03:19:26;12.95;;;7.15;;
55706;SDS011;41608;45.384;20.394;2022-10-22T03:21:53;18.08;;;7.72;;
55706;SDS011;41608;45.384;20.394;2022-10-22T03:24:24;16.08;;;7.40;;
55706;SDS011;41608;45.384;20.394;2022-10-22T03:26:52;13.77;;;7.13;;
55706;SDS011;41608;45.384;20.394;2022-10-22T03:29:18;10.98;;;5.85;;
55706;SDS011;41608;45.384;20.394;2022-10-22T03:31:48;16.23;;;8.05;;
55706;SDS011;41608;45.384;20.394;2022-10-22T03:34:14;12.40;;;6.72;;
55706;SDS011;41608;45.384;20.394;2022-10-22T03:36:40;11.05;;;7.22;;
55706;SDS011;41608;45.384;20.394;2022-10-22T03:39:06;21.58;;;7.22;;
55706;SDS011;41608;45.384;20.394;2022-10-22T03:41:32;11.13;;;6.95;;
55706;SDS011;41608;45.384;20.394;2022-10-22T03:43:59;14.63;;;7.25;;
55706;SDS011;41608;45.384;20.394;2022-10-22T03:46:26;12.88;;;6.68;;
55706;SDS011;41608;45.384;20.394;2022-10-22T03:48:52;12.93;;;7.72;;
55706;SDS011;41608;45.384;20.394;2022-10-22T03:51:18;11.50;;;6.95;;
55706;SDS011;41608;45.384;20.394;2022-10-22T03:53:44;22.65;;;8.88;;
55706;SDS011;41608;45.384;20.394;2022-10-22T03:56:11;11.23;;;6.95;;
55706;SDS011;41608;45.384;20.394;2022-10-22T03:58:38;15.95;;;7.57;;
55706;SDS011;41608;45.384;20.394;2022-10-22T04:01:05;11.30;;;7.18;;
55706;SDS011;41608;45.384;20.394;2022-10-22T04:03:31;16.08;;;7.30;;
55706;SDS011;41608;45.384;20.394;2022-10-22T04:06:01;13.15;;;7.15;;
55706;SDS011;41608;45.384;20.394;2022-10-22T04:08:28;11.40;;;6.78;;
55706;SDS011;41608;45.384;20.394;2022-10-22T04:10:54;10.85;;;6.68;;
55706;SDS011;41608;45.384;20.394;2022-10-22T04:13:20;12.63;;;7.05;;
55706;SDS011;41608;45.384;20.394;2022-10-22T04:15:46;13.10;;;7.55;;
55706;SDS011;41608;45.384;20.394;2022-10-22T04:18:12;18.42;;;7.53;;
55706;SDS011;41608;45.384;20.394;2022-10-22T04:20:40;13.05;;;7.25;;
55706;SDS011;41608;45.384;20.394;2022-10-22T04:23:08;15.43;;;8.00;;
55706;SDS011;41608;45.384;20.394;2022-10-22T04:25:34;14.85;;;7.00;;
55706;SDS011;41608;45.384;20.394;2022-10-22T04:28:00;12.60;;;7.38;;
55706;SDS011;41608;45.384;20.394;2022-10-22T04:30:26;16.35;;;7.32;;
55706;SDS011;41608;45.384;20.394;2022-10-22T04:32:52;13.88;;;7.07;;
55706;SDS011;41608;45.384;20.394;2022-10-22T04:35:18;12.00;;;6.68;;
55706;SDS011;41608;45.384;20.394;2022-10-22T04:37:44;14.65;;;6.93;;
55706;SDS011;41608;45.384;20.394;2022-10-22T04:40:11;14.93;;;7.15;;
55706;SDS011;41608;45.384;20.394;2022-10-22T04:42:37;13.18;;;7.10;;
55706;SDS011;41608;45.384;20.394;2022-10-22T04:45:03;15.35;;;7.28;;
55706;SDS011;41608;45.384;20.394;2022-10-22T04:47:29;15.07;;;7.30;;
55706;SDS011;41608;45.384;20.394;2022-10-22T04:49:55;13.13;;;7.25;;
55706;SDS011;41608;45.384;20.394;2022-10-22T04:52:21;11.02;;;6.40;;
55706;SDS011;41608;45.384;20.394;2022-10-22T04:54:47;15.45;;;7.88;;
55706;SDS011;41608;45.384;20.394;2022-10-22T04:57:13;13.25;;;7.15;;
55706;SDS011;41608;45.384;20.394;2022-10-22T04:59:40;15.93;;;6.43;;
55706;SDS011;41608;45.384;20.394;2022-10-22T05:02:06;9.48;;;6.20;;
55706;SDS011;41608;45.384;20.394;2022-10-22T05:04:32;10.73;;;7.10;;
55706;SDS011;41608;45.384;20.394;2022-10-22T05:06:58;17.25;;;8.55;;
55706;SDS011;41608;45.384;20.394;2022-10-22T05:09:24;12.35;;;7.25;;
55706;SDS011;41608;45.384;20.394;2022-10-22T05:11:51;15.52;;;7.70;;
55706;SDS011;41608;45.384;20.394;2022-10-22T05:14:23;14.60;;;7.45;;
55706;SDS011;41608;45.384;20.394;2022-10-22T05:16:50;15.05;;;8.00;;
55706;SDS011;41608;45.384;20.394;2022-10-22T05:19:17;13.95;;;7.93;;
55706;SDS011;41608;45.384;20.394;2022-10-22T05:21:44;10.85;;;6.97;;
55706;SDS011;41608;45.384;20.394;2022-10-22T05:24:10;12.70;;;6.95;;
55706;SDS011;41608;45.384;20.394;2022-10-22T05:26:36;16.55;;;9.20;;
55706;SDS011;41608;45.384;20.394;2022-10-22T05:29:02;15.38;;;8.13;;
55706;SDS011;41608;45.384;20.394;2022-10-22T05:31:28;10.95;;;6.97;;
55706;SDS011;41608;45.384;20.394;2022-10-22T05:33:54;18.90;;;7.78;;
55706;SDS011;41608;45.384;20.394;2022-10-22T05:36:21;16.13;;;8.57;;
55706;SDS011;41608;45.384;20.394;2022-10-22T05:38:47;13.77;;;8.35;;
55706;SDS011;41608;45.384;20.394;2022-10-22T05:41:17;12.43;;;7.13;;
55706;SDS011;41608;45.384;20.394;2022-10-22T05:43:44;15.40;;;8.50;;
55706;SDS011;41608;45.384;20.394;2022-10-22T05:46:14;16.27;;;8.07;;
55706;SDS011;41608;45.384;20.394;2022-10-22T05:48:41;13.45;;;8.13;;
55706;SDS011;41608;45.384;20.394;2022-10-22T05:51:11;17.23;;;12.48;;
55706;SDS011;41608;45.384;20.394;2022-10-22T05:53:39;13.85;;;9.20;;
55706;SDS011;41608;45.384;20.394;2022-10-22T05:56:07;14.13;;;6.95;;
55706;SDS011;41608;45.384;20.394;2022-10-22T05:58:33;16.85;;;8.40;;
55706;SDS011;41608;45.384;20.394;2022-10-22T06:01:00;13.88;;;8.30;;
55706;SDS011;41608;45.384;20.394;2022-10-22T06:03:26;13.50;;;7.88;;
55706;SDS011;41608;45.384;20.394;2022-10-22T06:05:53;20.02;;;9.25;;
55706;SDS011;41608;45.384;20.394;2022-10-22T06:08:19;11.75;;;9.32;;
55706;SDS011;41608;45.384;20.394;2022-10-22T06:10:45;17.85;;;8.45;;
55706;SDS011;41608;45.384;20.394;2022-10-22T06:13:11;18.40;;;8.63;;
55706;SDS011;41608;45.384;20.394;2022-10-22T06:15:37;12.35;;;8.05;;
55706;SDS011;41608;45.384;20.394;2022-10-22T06:18:03;16.80;;;7.28;;
55706;SDS011;41608;45.384;20.394;2022-10-22T06:20:29;16.67;;;9.02;;
55706;SDS011;41608;45.384;20.394;2022-10-22T06:22:58;18.60;;;9.38;;
55706;SDS011;41608;45.384;20.394;2022-10-22T06:25:25;13.95;;;10.73;;
55706;SDS011;41608;45.384;20.394;2022-10-22T06:27:51;15.52;;;9.52;;
55706;SDS011;41608;45.384;20.394;2022-10-22T06:30:17;14.90;;;9.10;;
55706;SDS011;41608;45.384;20.394;2022-10-22T06:32:43;15.40;;;8.20;;
55706;SDS011;41608;45.384;20.394;2022-10-22T06:35:09;17.58;;;8.43;;
55706;SDS011;41608;45.384;20.394;2022-10-22T06:37:35;17.33;;;7.80;;
55706;SDS011;41608;45.384;20.394;2022-10-22T06:40:01;20.33;;;8.18;;
55706;SDS011;41608;45.384;20.394;2022-10-22T06:42:27;16.02;;;7.60;;
55706;SDS011;41608;45.384;20.394;2022-10-22T06:44:53;14.30;;;7.50;;
55706;SDS011;41608;45.384;20.394;2022-10-22T06:47:19;14.02;;;7.85;;
55706;SDS011;41608;45.384;20.394;2022-10-22T06:49:47;18.38;;;8.25;;
55706;SDS011;41608;45.384;20.394;2022-10-22T06:52:13;14.52;;;8.60;;
55706;SDS011;41608;45.384;20.394;2022-10-22T06:54:40;14.57;;;7.47;;
55706;SDS011;41608;45.384;20.394;2022-10-22T06:57:06;11.25;;;7.57;;
55706;SDS011;41608;45.384;20.394;2022-10-22T06:59:32;17.58;;;8.98;;
55706;SDS011;41608;45.384;20.394;2022-10-22T07:01:58;22.17;;;8.50;;
55706;SDS011;41608;45.384;20.394;2022-10-22T07:04:24;15.10;;;8.40;;
55706;SDS011;41608;45.384;20.394;2022-10-22T07:06:50;17.65;;;8.65;;
55706;SDS011;41608;45.384;20.394;2022-10-22T07:09:16;17.13;;;8.10;;
55706;SDS011;41608;45.384;20.394;2022-10-22T07:11:43;17.83;;;7.97;;
55706;SDS011;41608;45.384;20.394;2022-10-22T07:14:10;16.85;;;8.70;;
55706;SDS011;41608;45.384;20.394;2022-10-22T07:16:36;15.77;;;8.90;;
55706;SDS011;41608;45.384;20.394;2022-10-22T07:19:03;14.40;;;8.57;;
55706;SDS011;41608;45.384;20.394;2022-10-22T07:21:30;17.30;;;9.57;;
55706;SDS011;41608;45.384;20.394;2022-10-22T07:23:56;12.48;;;8.18;;
55706;SDS011;41608;45.384;20.394;2022-10-22T07:26:23;12.73;;;8.23;;
55706;SDS011;41608;45.384;20.394;2022-10-22T07:28:49;22.85;;;9.15;;
55706;SDS011;41608;45.384;20.394;2022-10-22T07:31:16;25.85;;;10.68;;
55706;SDS011;41608;45.384;20.394;2022-10-22T07:33:42;15.70;;;8.20;;
55706;SDS011;41608;45.384;20.394;2022-10-22T07:36:10;16.77;;;10.20;;
55706;SDS011;41608;45.384;20.394;2022-10-22T07:38:36;17.88;;;9.63;;
55706;SDS011;41608;45.384;20.394;2022-10-22T07:41:02;17.27;;;9.80;;
55706;SDS011;41608;45.384;20.394;2022-10-22T07:43:28;17.90;;;8.48;;
55706;SDS011;41608;45.384;20.394;2022-10-22T07:45:54;15.45;;;9.80;;
55706;SDS011;41608;45.384;20.394;2022-10-22T07:48:21;14.43;;;9.27;;
55706;SDS011;41608;45.384;20.394;2022-10-22T07:50:50;14.90;;;8.18;;
55706;SDS011;41608;45.384;20.394;2022-10-22T07:53:16;15.90;;;8.35;;
55706;SDS011;41608;45.384;20.394;2022-10-22T07:55:43;15.85;;;8.48;;
55706;SDS011;41608;45.384;20.394;2022-10-22T07:58:09;23.13;;;9.70;;
55706;SDS011;41608;45.384;20.394;2022-10-22T08:00:35;20.75;;;7.93;;
55706;SDS011;41608;45.384;20.394;2022-10-22T08:03:03;24.95;;;9.27;;
55706;SDS011;41608;45.384;20.394;2022-10-22T08:05:29;14.88;;;9.20;;
55706;SDS011;41608;45.384;20.394;2022-10-22T08:07:55;20.83;;;9.43;;
55706;SDS011;41608;45.384;20.394;2022-10-22T08:10:21;18.92;;;9.52;;
55706;SDS011;41608;45.384;20.394;2022-10-22T08:12:47;17.33;;;10.23;;
55706;SDS011;41608;45.384;20.394;2022-10-22T08:15:13;19.00;;;8.48;;
55706;SDS011;41608;45.384;20.394;2022-10-22T08:17:39;14.02;;;8.70;;
55706;SDS011;41608;45.384;20.394;2022-10-22T08:20:06;13.32;;;9.23;;
55706;SDS011;41608;45.384;20.394;2022-10-22T08:22:32;13.60;;;9.70;;
55706;SDS011;41608;45.384;20.394;2022-10-22T08:24:58;12.57;;;8.00;;
55706;SDS011;41608;45.384;20.394;2022-10-22T08:27:24;15.57;;;9.50;;
55706;SDS011;41608;45.384;20.394;2022-10-22T08:29:50;16.35;;;10.13;;
55706;SDS011;41608;45.384;20.394;2022-10-22T08:32:16;19.27;;;11.23;;
55706;SDS011;41608;45.384;20.394;2022-10-22T08:34:42;24.48;;;10.10;;
55706;SDS011;41608;45.384;20.394;2022-10-22T08:37:08;18.60;;;9.27;;
55706;SDS011;41608;45.384;20.394;2022-10-22T08:39:38;18.98;;;10.35;;
55706;SDS011;41608;45.384;20.394;2022-10-22T08:44:38;21.13;;;10.07;;
55706;SDS011;41608;45.384;20.394;2022-10-22T08:49:43;16.63;;;9.98;;
55706;SDS011;41608;45.384;20.394;2022-10-22T08:52:16;28.80;;;8.93;;
55706;SDS011;41608;45.384;20.394;2022-10-22T09:03:09;14.32;;;8.70;;
55706;SDS011;41608;45.384;20.394;2022-10-22T09:08:11;20.60;;;9.93;;
55706;SDS011;41608;45.384;20.394;2022-10-22T09:10:39;18.13;;;8.43;;
55706;SDS011;41608;45.384;20.394;2022-10-22T09:13:09;16.05;;;9.02;;
55706;SDS011;41608;45.384;20.394;2022-10-22T09:15:37;20.50;;;9.00;;
55706;SDS011;41608;45.384;20.394;2022-10-22T09:18:20;18.50;;;8.75;;
55706;SDS011;41608;45.384;20.394;2022-10-22T09:20:49;21.52;;;9.90;;
55706;SDS011;41608;45.384;20.394;2022-10-22T09:25:44;21.25;;;11.35;;
55706;SDS011;41608;45.384;20.394;2022-10-22T09:28:11;15.05;;;10.02;;
55706;SDS011;41608;45.384;20.394;2022-10-22T09:30:37;17.58;;;11.50;;
55706;SDS011;41608;45.384;20.394;2022-10-22T09:33:24;13.50;;;9.15;;
55706;SDS011;41608;45.384;20.394;2022-10-22T09:38:18;17.10;;;9.98;;
55706;SDS011;41608;45.384;20.394;2022-10-22T09:40:45;14.38;;;9.20;;
55706;SDS011;41608;45.384;20.394;2022-10-22T09:43:12;19.15;;;9.90;;
55706;SDS011;41608;45.384;20.394;2022-10-22T09:45:39;20.38;;;10.27;;
55706;SDS011;41608;45.384;20.394;2022-10-22T09:48:09;23.02;;;12.00;;
55706;SDS011;41608;45.384;20.394;2022-10-22T09:55:54;16.58;;;8.52;;
55706;SDS011;41608;45.384;20.394;2022-10-22T09:58:20;20.90;;;9.55;;
55706;SDS011;41608;45.384;20.394;2022-10-22T10:00:49;16.05;;;9.55;;
55706;SDS011;41608;45.384;20.394;2022-10-22T10:03:17;22.73;;;10.02;;
55706;SDS011;41608;45.384;20.394;2022-10-22T10:05:45;26.70;;;10.95;;
55706;SDS011;41608;45.384;20.394;2022-10-22T10:08:13;20.15;;;8.55;;
55706;SDS011;41608;45.384;20.394;2022-10-22T10:13:18;18.30;;;8.35;;
55706;SDS011;41608;45.384;20.394;2022-10-22T10:15:54;11.75;;;7.63;;
55706;SDS011;41608;45.384;20.394;2022-10-22T10:20:51;20.50;;;8.68;;
55706;SDS011;41608;45.384;20.394;2022-10-22T10:26:00;17.20;;;9.20;;
55706;SDS011;41608;45.384;20.394;2022-10-22T10:28:45;15.45;;;8.65;;
55706;SDS011;41608;45.384;20.394;2022-10-22T10:33:55;13.30;;;9.13;;
55706;SDS011;41608;45.384;20.394;2022-10-22T10:38:52;15.07;;;7.50;;
55706;SDS011;41608;45.384;20.394;2022-10-22T10:41:23;16.88;;;8.63;;
55706;SDS011;41608;45.384;20.394;2022-10-22T10:46:39;13.30;;;8.00;;
55706;SDS011;41608;45.384;20.394;2022-10-22T10:49:09;20.40;;;8.88;;
55706;SDS011;41608;45.384;20.394;2022-10-22T10:51:46;23.67;;;9.80;;
55706;SDS011;41608;45.384;20.394;2022-10-22T10:54:25;14.35;;;8.13;;
55706;SDS011;41608;45.384;20.394;2022-10-22T10:56:59;13.68;;;8.05;;
55706;SDS011;41608;45.384;20.394;2022-10-22T11:04:44;15.82;;;8.77;;
55706;SDS011;41608;45.384;20.394;2022-10-22T11:07:15;19.60;;;8.98;;
55706;SDS011;41608;45.384;20.394;2022-10-22T11:09:47;17.92;;;9.65;;
55706;SDS011;41608;45.384;20.394;2022-10-22T11:12:17;13.57;;;8.52;;
55706;SDS011;41608;45.384;20.394;2022-10-22T11:17:17;23.05;;;14.38;;
55706;SDS011;41608;45.384;20.394;2022-10-22T11:20:05;21.88;;;9.55;;
55706;SDS011;41608;45.384;20.394;2022-10-22T11:25:22;18.45;;;8.38;;
55706;SDS011;41608;45.384;20.394;2022-10-22T11:27:55;13.15;;;8.52;;
55706;SDS011;41608;45.384;20.394;2022-10-22T11:30:23;14.35;;;7.97;;
55706;SDS011;41608;45.384;20.394;2022-10-22T11:32:52;14.30;;;7.85;;
55706;SDS011;41608;45.384;20.394;2022-10-22T11:35:21;15.65;;;8.80;;
55706;SDS011;41608;45.384;20.394;2022-10-22T11:37:49;19.13;;;10.48;;
55706;SDS011;41608;45.384;20.394;2022-10-22T11:40:20;15.65;;;9.57;;
55706;SDS011;41608;45.384;20.394;2022-10-22T11:42:48;13.27;;;9.57;;
55706;SDS011;41608;45.384;20.394;2022-10-22T11:47:56;14.23;;;9.18;;
55706;SDS011;41608;45.384;20.394;2022-10-22T11:50:24;18.13;;;8.95;;
55706;SDS011;41608;45.384;20.394;2022-10-22T11:53:04;16.27;;;7.95;;
55706;SDS011;41608;45.384;20.394;2022-10-22T11:58:29;14.48;;;7.65;;
55706;SDS011;41608;45.384;20.394;2022-10-22T12:06:15;16.48;;;9.85;;
55706;SDS011;41608;45.384;20.394;2022-10-22T12:21:36;19.73;;;11.15;;
55706;SDS011;41608;45.384;20.394;2022-10-22T12:24:05;25.33;;;11.70;;
55706;SDS011;41608;45.384;20.394;2022-10-22T12:26:32;16.65;;;8.82;;
55706;SDS011;41608;45.384;20.394;2022-10-22T12:29:02;13.73;;;9.00;;
55706;SDS011;41608;45.384;20.394;2022-10-22T12:31:28;15.23;;;8.90;;
55706;SDS011;41608;45.384;20.394;2022-10-22T12:34:00;17.40;;;9.30;;
55706;SDS011;41608;45.384;20.394;2022-10-22T12:36:26;16.65;;;8.50;;
55706;SDS011;41608;45.384;20.394;2022-10-22T12:38:52;15.43;;;8.55;;
55706;SDS011;41608;45.384;20.394;2022-10-22T12:41:20;15.40;;;8.43;;
55706;SDS011;41608;45.384;20.394;2022-10-22T12:43:46;21.13;;;9.95;;
55706;SDS011;41608;45.384;20.394;2022-10-22T12:46:13;16.02;;;9.98;;
55706;SDS011;41608;45.384;20.394;2022-10-22T12:48:41;17.45;;;8.82;;
55706;SDS011;41608;45.384;20.394;2022-10-22T12:51:10;16.08;;;8.75;;
55706;SDS011;41608;45.384;20.394;2022-10-22T12:53:42;20.73;;;10.35;;
55706;SDS011;41608;45.384;20.394;2022-10-22T12:56:14;20.13;;;10.57;;
55706;SDS011;41608;45.384;20.394;2022-10-22T12:58:42;26.80;;;10.00;;
55706;SDS011;41608;45.384;20.394;2022-10-22T13:01:12;16.48;;;10.73;;
55706;SDS011;41608;45.384;20.394;2022-10-22T13:03:42;21.33;;;10.55;;
55706;SDS011;41608;45.384;20.394;2022-10-22T13:08:38;19.60;;;9.25;;
55706;SDS011;41608;45.384;20.394;2022-10-22T13:11:08;18.27;;;9.18;;
55706;SDS011;41608;45.384;20.394;2022-10-22T13:13:40;18.10;;;10.13;;
55706;SDS011;41608;45.384;20.394;2022-10-22T13:16:13;19.15;;;10.40;;
55706;SDS011;41608;45.384;20.394;2022-10-22T13:18:40;27.35;;;11.45;;
55706;SDS011;41608;45.384;20.394;2022-10-22T13:21:21;21.77;;;11.80;;
55706;SDS011;41608;45.384;20.394;2022-10-22T13:26:49;23.45;;;11.27;;
55706;SDS011;41608;45.384;20.394;2022-10-22T13:29:17;23.77;;;13.98;;
55706;SDS011;41608;45.384;20.394;2022-10-22T13:31:45;24.73;;;12.65;;
55706;SDS011;41608;45.384;20.394;2022-10-22T13:34:13;21.35;;;12.70;;
55706;SDS011;41608;45.384;20.394;2022-10-22T13:36:40;23.95;;;12.43;;
55706;SDS011;41608;45.384;20.394;2022-10-22T13:39:09;27.33;;;13.10;;
55706;SDS011;41608;45.384;20.394;2022-10-22T13:41:37;21.02;;;13.48;;
55706;SDS011;41608;45.384;20.394;2022-10-22T13:44:04;21.35;;;12.80;;
55706;SDS011;41608;45.384;20.394;2022-10-22T13:46:30;32.85;;;15.38;;
55706;SDS011;41608;45.384;20.394;2022-10-22T13:48:57;33.00;;;14.55;;
55706;SDS011;41608;45.384;20.394;2022-10-22T13:51:28;29.88;;;15.75;;
55706;SDS011;41608;45.384;20.394;2022-10-22T13:53:56;27.50;;;13.80;;
55706;SDS011;41608;45.384;20.394;2022-10-22T13:56:23;25.08;;;13.32;;
55706;SDS011;41608;45.384;20.394;2022-10-22T13:58:49;23.13;;;12.32;;
55706;SDS011;41608;45.384;20.394;2022-10-22T14:01:17;23.30;;;11.80;;
55706;SDS011;41608;45.384;20.394;2022-10-22T14:03:44;26.25;;;12.50;;
55706;SDS011;41608;45.384;20.394;2022-10-22T14:06:12;25.83;;;12.40;;
55706;SDS011;41608;45.384;20.394;2022-10-22T14:08:38;35.70;;;15.80;;
55706;SDS011;41608;45.384;20.394;2022-10-22T14:11:05;19.10;;;11.65;;
55706;SDS011;41608;45.384;20.394;2022-10-22T14:13:31;24.92;;;13.05;;
55706;SDS011;41608;45.384;20.394;2022-10-22T14:15:57;21.35;;;11.70;;
55706;SDS011;41608;45.384;20.394;2022-10-22T14:18:24;20.20;;;10.77;;
55706;SDS011;41608;45.384;20.394;2022-10-22T14:20:53;21.60;;;10.75;;
55706;SDS011;41608;45.384;20.394;2022-10-22T14:23:20;38.60;;;17.75;;
55706;SDS011;41608;45.384;20.394;2022-10-22T14:25:47;37.55;;;14.45;;
55706;SDS011;41608;45.384;20.394;2022-10-22T14:28:15;27.52;;;15.20;;
55706;SDS011;41608;45.384;20.394;2022-10-22T14:30:41;38.67;;;17.02;;
55706;SDS011;41608;45.384;20.394;2022-10-22T14:33:15;28.65;;;17.08;;
55706;SDS011;41608;45.384;20.394;2022-10-22T14:35:41;26.10;;;12.52;;
55706;SDS011;41608;45.384;20.394;2022-10-22T14:38:07;25.35;;;16.25;;
55706;SDS011;41608;45.384;20.394;2022-10-22T14:40:34;21.90;;;12.27;;
55706;SDS011;41608;45.384;20.394;2022-10-22T14:43:03;21.20;;;11.80;;
55706;SDS011;41608;45.384;20.394;2022-10-22T14:45:29;29.63;;;14.52;;
55706;SDS011;41608;45.384;20.394;2022-10-22T14:47:55;18.85;;;12.38;;
55706;SDS011;41608;45.384;20.394;2022-10-22T14:50:22;20.40;;;12.73;;
55706;SDS011;41608;45.384;20.394;2022-10-22T14:52:49;19.63;;;11.52;;
55706;SDS011;41608;45.384;20.394;2022-10-22T14:55:16;21.63;;;13.15;;
55706;SDS011;41608;45.384;20.394;2022-10-22T14:57:42;27.35;;;13.77;;
55706;SDS011;41608;45.384;20.394;2022-10-22T15:00:13;30.40;;;12.77;;
55706;SDS011;41608;45.384;20.394;2022-10-22T15:02:39;34.00;;;14.40;;
55706;SDS011;41608;45.384;20.394;2022-10-22T15:05:05;30.08;;;13.73;;
55706;SDS011;41608;45.384;20.394;2022-10-22T15:07:32;36.35;;;14.23;;
55706;SDS011;41608;45.384;20.394;2022-10-22T15:09:58;29.05;;;13.25;;
55706;SDS011;41608;45.384;20.394;2022-10-22T15:12:24;27.40;;;13.52;;
55706;SDS011;41608;45.384;20.394;2022-10-22T15:14:50;29.83;;;15.00;;
55706;SDS011;41608;45.384;20.394;2022-10-22T15:17:16;28.42;;;16.92;;
55706;SDS011;41608;45.384;20.394;2022-10-22T15:19:43;35.65;;;18.80;;
55706;SDS011;41608;45.384;20.394;2022-10-22T15:22:09;29.60;;;19.05;;
55706;SDS011;41608;45.384;20.394;2022-10-22T15:24:35;46.22;;;18.83;;
55706;SDS011;41608;45.384;20.394;2022-10-22T15:27:02;44.30;;;23.27;;
55706;SDS011;41608;45.384;20.394;2022-10-22T15:29:29;46.10;;;26.63;;
55706;SDS011;41608;45.384;20.394;2022-10-22T15:31:55;39.63;;;22.90;;
55706;SDS011;41608;45.384;20.394;2022-10-22T15:34:31;41.63;;;24.10;;
55706;SDS011;41608;45.384;20.394;2022-10-22T15:36:58;33.88;;;21.70;;
55706;SDS011;41608;45.384;20.394;2022-10-22T15:39:25;43.05;;;23.83;;
55706;SDS011;41608;45.384;20.394;2022-10-22T15:41:51;30.73;;;21.17;;
55706;SDS011;41608;45.384;20.394;2022-10-22T15:44:28;40.70;;;20.67;;
55706;SDS011;41608;45.384;20.394;2022-10-22T15:46:55;29.65;;;16.63;;
55706;SDS011;41608;45.384;20.394;2022-10-22T15:49:21;29.50;;;18.85;;
55706;SDS011;41608;45.384;20.394;2022-10-22T15:51:48;36.90;;;20.50;;
55706;SDS011;41608;45.384;20.394;2022-10-22T15:54:15;36.60;;;19.00;;
55706;SDS011;41608;45.384;20.394;2022-10-22T15:56:43;36.13;;;18.52;;
55706;SDS011;41608;45.384;20.394;2022-10-22T15:59:09;30.05;;;18.30;;
55706;SDS011;41608;45.384;20.394;2022-10-22T16:01:36;33.25;;;18.90;;
55706;SDS011;41608;45.384;20.394;2022-10-22T16:04:03;35.05;;;19.63;;
55706;SDS011;41608;45.384;20.394;2022-10-22T16:06:30;33.45;;;19.48;;
55706;SDS011;41608;45.384;20.394;2022-10-22T16:08:57;45.50;;;21.42;;
55706;SDS011;41608;45.384;20.394;2022-10-22T16:11:24;38.33;;;19.27;;
55706;SDS011;41608;45.384;20.394;2022-10-22T16:13:53;32.13;;;18.50;;